Etusivu
METAR-TAF:

METAR-TAF

Lentoasemat :

Jedda, Saudi-Arabia

Kuningas Abdilazizin kansainvälinen lentoasema

Leveyspiiri: 21-42N, Pituuspiiri: 039-11E, korkeus merenpinnasta: 15 m

Tämänhetkinen sää

Tämä raportti tehtiin 54 minuuttia sitten, kello 18.00 UTC
Tuuli 10 kn etelästä/lounaasta
Lämpötila 31°C
Kosteus 66%
Ilmanpaine 1010 hPa
Näkyvyys 10 km tai enemmän
Muutamia pilviä 3000 ft:n korkeudessa

METAR: OEJN 191800Z 21010KT 9999 FEW030 31/24 Q1010 NOSIG

Aika: 21:54 (18:54 UTC)

Sääennuste

Tämä raportti tehtiin 1 tunti ja 54 minuuttia sitten, kello 17.00 UTC
Ennuste voimassa 19. päivästä klo 18 UTC - 20. päivään klo 24 UTC
Tuuli 8 kn koillisesta
Näkyvyys: 7000 m
Muutamia pilviä 4000 ft:n korkeudessa
Hajanaisia pilviä 10000 ft:n korkeudessa
Tulossa
20. päivästä klo 06 UTC - 20. päivään klo 08 UTC
Tuuli 12 kn lännestä

TAF: OEJN 191700Z 1918/2024 05008KT 7000 FEW040 SCT100 BECMG 2006/2008 26012KT

Säähavainnot ja -ennusteet yli 4000 lentoasemalta (METAR- ja TAF-raportit).

Käytössä olevat sääasemat on merkitty karttaan keltaisilla ja punaisilla pisteillä.

Aseta hiiri pisteen päälle nähdäksesi sääaseman nimen.

Klikkaa sitten nähdäksesi säähavainnot ja -ennusteet.

Kartan vaihtaminen: klikkaa mustalla rastilla varustettuja vihreitä pisteitä, niin voit zoomata sisään; viivalla varustettua vihreää pistettä, niin voit zoomata ulos tai vihreitä nuolia, niin pääset viereisille kartoille.


METAR-TAF: